Time;durP1;ratioP1;P1;durP2;ratioP2;P2;SDS_P1;SDS_P2;PMS_P1;PMS_P2;Temp;Humidity;BMP_temperature;BMP_pressure;BME280_temperature;BME280_humidity;BME280_pressure;Samples;Min_cycle;Max_cycle;Signal;HPM_P1;HPM_P2
2022/05/11 00:00:32;;;;;;;5.45;4.28;;;;;;;17.26;100.00;100452.47;5073529;28;20199;-68
2022/05/11 00:03:00;;;;;;;7.20;4.70;;;;;;;17.22;100.00;100444.63;5073587;28;20576;-68
2022/05/11 00:05:26;;;;;;;6.05;4.82;;;;;;;17.25;100.00;100440.25;5073708;28;20206;-68
2022/05/11 00:07:53;;;;;;;9.65;5.20;;;;;;;17.30;100.00;100448.91;5073627;28;20191;-68
2022/05/11 00:10:20;;;;;;;10.95;5.28;;;;;;;17.33;100.00;100453.28;5073765;28;20198;-68
2022/05/11 00:12:48;;;;;;;8.05;5.30;;;;;;;17.36;100.00;100450.66;5073737;28;20206;-68
2022/05/11 00:15:19;;;;;;;5.97;4.97;;;;;;;17.32;100.00;100435.81;5073356;28;20191;-68
2022/05/11 00:17:47;;;;;;;11.82;6.53;;;;;;;17.09;100.00;100448.19;5073337;28;20226;-68
2022/05/11 00:20:17;;;;;;;9.52;5.70;;;;;;;17.33;100.00;100455.91;5073007;28;20190;-68
2022/05/11 00:22:44;;;;;;;13.15;6.38;;;;;;;17.10;100.00;100423.72;5072872;28;20198;-68
2022/05/11 00:25:14;;;;;;;8.10;5.53;;;;;;;17.22;100.00;100450.75;5073226;28;20199;-69
2022/05/11 00:27:41;;;;;;;4.70;4.22;;;;;;;17.17;100.00;100454.25;5073279;28;20600;-68
2022/05/11 00:30:09;;;;;;;8.57;5.72;;;;;;;17.06;100.00;100432.47;5072492;28;20199;-68
2022/05/11 00:32:36;;;;;;;8.07;5.47;;;;;;;17.08;100.00;100431.63;5054742;28;20198;-68
2022/05/11 00:35:04;;;;;;;11.65;5.13;;;;;;;17.17;100.00;100452.50;5054493;28;20202;-68
2022/05/11 00:37:32;;;;;;;6.18;5.10;;;;;;;17.08;100.00;100449.09;5072830;28;20225;-68
2022/05/11 00:39:59;;;;;;;6.45;5.25;;;;;;;17.05;100.00;100446.47;5072923;28;20734;-68
2022/05/11 00:42:26;;;;;;;9.35;5.38;;;;;;;17.04;100.00;100449.97;5035390;28;20305;-68
2022/05/11 00:44:54;;;;;;;8.63;5.15;;;;;;;17.12;100.00;100446.41;5072461;28;20621;-68
2022/05/11 00:47:25;;;;;;;10.25;5.10;;;;;;;17.13;100.00;100440.31;5037662;28;20207;-68
2022/05/11 00:49:53;;;;;;;6.65;4.60;;;;;;;16.83;100.00;100411.66;5072514;28;20674;-69
2022/05/11 00:52:23;;;;;;;8.95;5.63;;;;;;;16.98;100.00;100429.91;5073272;28;20213;-68
2022/05/11 00:54:56;;;;;;;7.90;5.13;;;;;;;16.98;100.00;100439.53;5072866;28;20194;-69
2022/05/11 00:57:30;;;;;;;9.68;5.40;;;;;;;16.91;100.00;100430.81;5052990;28;20318;-69
2022/05/11 00:59:58;;;;;;;9.55;5.90;;;;;;;16.79;100.00;100428.28;5069020;28;20285;-68
2022/05/11 01:02:24;;;;;;;11.55;5.55;;;;;;;16.64;100.00;100417.84;5073227;28;20202;-68
2022/05/11 01:04:54;;;;;;;7.45;6.00;;;;;;;16.53;100.00;100399.53;5037332;28;20198;-69
2022/05/11 01:07:21;;;;;;;14.32;5.82;;;;;;;16.50;100.00;100414.38;5072657;28;20570;-68
2022/05/11 01:09:48;;;;;;;9.15;6.20;;;;;;;16.56;100.00;100430.09;5071919;28;20191;-68
2022/05/11 01:12:20;;;;;;;8.13;5.88;;;;;;;16.47;100.00;100407.44;5072185;28;20195;-68
2022/05/11 01:14:52;;;;;;;8.27;6.05;;;;;;;16.55;100.00;100423.94;5072344;28;20317;-69
2022/05/11 01:17:20;;;;;;;14.57;6.05;;;;;;;16.44;100.00;100431.00;5062543;28;20276;-68
2022/05/11 01:19:48;;;;;;;10.15;5.35;;;;;;;16.42;100.00;100430.13;5072136;28;20214;-68
2022/05/11 01:22:19;;;;;;;14.65;6.68;;;;;;;16.46;100.00;100436.22;5072459;28;20199;-68
2022/05/11 01:24:50;;;;;;;8.70;5.90;;;;;;;16.33;100.00;100436.28;5072468;28;20202;-68
2022/05/11 01:27:25;;;;;;;9.35;5.72;;;;;;;16.43;100.00;100434.50;5071989;28;20199;-68
2022/05/11 01:29:53;;;;;;;8.90;5.35;;;;;;;16.25;100.00;100417.09;5070657;28;20194;-68
2022/05/11 01:32:20;;;;;;;9.38;5.93;;;;;;;16.25;100.00;100432.78;5071931;28;20202;-68
2022/05/11 01:34:49;;;;;;;9.25;4.85;;;;;;;16.14;100.00;100433.69;5071810;28;20207;-68
2022/05/11 01:37:16;;;;;;;10.52;5.43;;;;;;;16.11;100.00;100445.03;5037068;28;20198;-68
2022/05/11 01:39:44;;;;;;;5.68;4.80;;;;;;;16.07;100.00;100438.06;5071492;28;20249;-68
2022/05/11 01:42:13;;;;;;;8.75;5.32;;;;;;;16.00;100.00;100428.47;5071573;28;20222;-68
2022/05/11 01:44:40;;;;;;;6.45;5.30;;;;;;;15.93;100.00;100436.31;5051714;28;20681;-69
2022/05/11 01:47:08;;;;;;;8.60;5.40;;;;;;;15.93;100.00;100444.19;5072025;28;20556;-68
2022/05/11 01:49:37;;;;;;;7.13;5.50;;;;;;;15.87;100.00;100460.75;5071650;28;20195;-68
2022/05/11 01:52:05;;;;;;;9.68;5.32;;;;;;;15.69;100.00;100438.09;5071368;28;20190;-68
2022/05/11 01:54:31;;;;;;;10.30;5.35;;;;;;;15.75;100.00;100447.66;5070718;28;20204;-68
2022/05/11 01:57:00;;;;;;;5.85;5.25;;;;;;;15.84;100.00;100463.34;5052435;28;20198;-69
2022/05/11 01:59:28;;;;;;;10.82;5.13;;;;;;;15.59;100.00;100452.00;5038799;28;20223;-69
2022/05/11 02:01:55;;;;;;;6.22;5.32;;;;;;;15.51;100.00;100452.91;5071176;28;20206;-68
2022/05/11 02:09:50;;;;;;;6.78;5.50;;;;;;;15.51;100.00;100460.75;5071468;28;20253;-68
2022/05/11 02:12:17;;;;;;;11.63;5.40;;;;;;;15.49;100.00;100457.22;5071259;28;20203;-68
2022/05/11 02:14:45;;;;;;;9.15;5.20;;;;;;;15.52;100.00;100459.88;5070834;28;20203;-68
2022/05/11 02:17:13;;;;;;;6.32;5.20;;;;;;;15.29;100.00;100434.53;5071113;28;20199;-68
2022/05/11 02:19:40;;;;;;;8.73;5.78;;;;;;;15.49;100.00;100458.09;5071338;28;20916;-68
2022/05/11 02:22:07;;;;;;;12.25;5.65;;;;;;;15.47;100.00;100454.59;5071091;28;20572;-68
2022/05/11 02:24:33;;;;;;;9.07;5.55;;;;;;;15.32;100.00;100425.84;5071258;28;20195;-68
2022/05/11 02:27:03;;;;;;;7.70;6.00;;;;;;;15.27;100.00;100407.53;5070940;28;20206;-68
2022/05/11 02:29:29;;;;;;;10.90;5.75;;;;;;;15.42;100.00;100464.16;5070662;28;20222;-69
2022/05/11 02:31:58;;;;;;;11.57;6.18;;;;;;;15.23;100.00;100438.91;5071410;28;20195;-68
2022/05/11 02:37:09;;;;;;;9.25;6.22;;;;;;;15.22;100.00;100456.31;5071228;28;20217;-68
2022/05/11 02:39:35;;;;;;;10.10;6.25;;;;;;;15.36;100.00;100470.28;5070478;28;20227;-68
2022/05/11 02:42:02;;;;;;;11.13;6.20;;;;;;;15.31;100.00;100460.66;5071113;28;20195;-68
2022/05/11 02:44:29;;;;;;;12.57;6.38;;;;;;;15.29;100.00;100471.13;5070383;28;20206;-68
2022/05/11 02:46:58;;;;;;;10.30;6.28;;;;;;;15.22;100.00;100445.84;5071003;28;20214;-68
2022/05/11 02:49:25;;;;;;;6.93;6.10;;;;;;;15.35;100.00;100475.47;5070180;28;20194;-68
2022/05/11 02:51:52;;;;;;;8.60;6.30;;;;;;;15.32;100.00;100468.50;5070727;28;20206;-68
2022/05/11 02:54:20;;;;;;;10.02;5.95;;;;;;;15.29;100.00;100472.88;5070738;28;20576;-68
2022/05/11 02:56:46;;;;;;;11.40;6.80;;;;;;;15.20;100.00;100472.81;5071192;28;20682;-68
2022/05/11 02:59:13;;;;;;;10.88;6.03;;;;;;;14.77;100.00;100398.72;5071008;28;20788;-69
2022/05/11 03:01:40;;;;;;;8.20;6.72;;;;;;;15.12;100.00;100462.38;5070470;28;20643;-68
2022/05/11 03:04:08;;;;;;;12.45;6.85;;;;;;;15.27;100.00;100472.84;5070064;28;20213;-68
2022/05/11 03:06:35;;;;;;;8.98;6.80;;;;;;;15.17;100.00;100470.22;5070693;28;20775;-68
2022/05/11 03:09:01;;;;;;;7.63;6.40;;;;;;;15.26;100.00;100473.75;5070321;28;20214;-68
2022/05/11 03:11:28;;;;;;;10.50;7.07;;;;;;;15.29;100.00;100476.34;5035459;28;20685;-68
2022/05/11 03:13:55;;;;;;;13.60;7.68;;;;;;;15.36;100.00;100478.09;5070136;28;20207;-68
2022/05/11 03:16:22;;;;;;;10.50;7.68;;;;;;;15.37;100.00;100477.22;5069949;28;20260;-68
2022/05/11 03:18:48;;;;;;;10.60;6.95;;;;;;;15.40;100.00;100481.59;5070829;28;20238;-68
2022/05/11 03:21:17;;;;;;;20.05;7.65;;;;;;;15.46;100.00;100480.72;5051194;28;20206;-68
2022/05/11 03:23:44;;;;;;;10.15;6.65;;;;;;;15.51;100.00;100492.97;5070552;28;20206;-68
2022/05/11 03:26:14;;;;;;;12.95;7.97;;;;;;;15.61;100.00;100501.69;5070038;28;20203;-68
2022/05/11 03:28:41;;;;;;;9.95;7.50;;;;;;;15.71;100.00;100499.09;5070039;28;20194;-68
2022/05/11 03:31:08;;;;;;;8.05;6.57;;;;;;;15.63;100.00;100469.44;5070189;28;20211;-69
2022/05/11 03:36:20;;;;;;;10.30;6.85;;;;;;;16.30;100.00;100480.72;5070337;28;20210;-68
2022/05/11 03:38:47;;;;;;;9.98;6.68;;;;;;;16.75;100.00;100481.53;5069516;28;20238;-69
2022/05/11 03:41:14;;;;;;;11.30;6.78;;;;;;;17.41;100.00;100493.41;5070142;28;20206;-69
2022/05/11 03:43:41;;;;;;;9.85;6.45;;;;;;;17.79;100.00;100490.56;5070224;28;20199;-69
2022/05/11 03:46:07;;;;;;;10.40;7.10;;;;;;;18.58;100.00;100495.13;5069718;28;20562;-69
2022/05/11 03:48:34;;;;;;;10.38;7.35;;;;;;;19.14;100.00;100497.94;5069599;28;20191;-69
2022/05/11 03:51:01;;;;;;;11.55;8.05;;;;;;;19.32;100.00;100488.91;5069462;28;20580;-69
2022/05/11 03:53:30;;;;;;;12.23;7.78;;;;;;;19.66;100.00;100503.34;5069913;28;20674;-69
2022/05/11 03:55:56;;;;;;;17.23;7.72;;;;;;;19.88;100.00;100516.16;5069853;28;20206;-69
2022/05/11 03:58:23;;;;;;;14.23;7.78;;;;;;;20.42;100.00;100517.91;5070282;28;20729;-69
2022/05/11 04:00:50;;;;;;;8.70;7.25;;;;;;;20.61;100.00;100516.66;5069528;28;20203;-69
2022/05/11 04:03:17;;;;;;;12.05;7.53;;;;;;;20.26;100.00;100527.78;5069916;28;20203;-69
2022/05/11 04:05:44;;;;;;;10.98;8.60;;;;;;;20.53;100.00;100513.31;5070018;28;20593;-68
2022/05/11 04:08:11;;;;;;;10.77;7.95;;;;;;;20.81;96.28;100508.38;5069724;28;20202;-71
2022/05/11 04:10:39;;;;;;;14.65;8.60;;;;;;;21.14;95.31;100520.91;5060870;28;20599;-72
2022/05/11 04:13:06;;;;;;;14.40;7.88;;;;;;;21.38;92.88;100526.53;5061388;28;20210;-71
2022/05/11 04:15:33;;;;;;;11.45;7.57;;;;;;;21.72;88.64;100530.16;5069829;28;20195;-72
2022/05/11 04:17:59;;;;;;;15.63;8.52;;;;;;;21.12;90.85;100548.19;5073629;28;20666;-71
2022/05/11 04:20:26;;;;;;;10.45;7.93;;;;;;;21.10;90.85;100526.22;5073298;28;20209;-72
2022/05/11 04:22:55;;;;;;;12.15;9.10;;;;;;;21.18;96.52;100538.41;5073166;28;20232;-73
2022/05/11 04:25:23;;;;;;;7.82;6.03;;;;;;;21.66;87.01;100546.13;5073431;28;20195;-71
2022/05/11 04:27:51;;;;;;;10.65;6.45;;;;;;;21.65;86.93;100549.69;5053873;28;20199;-70
2022/05/11 04:30:20;;;;;;;12.25;6.80;;;;;;;22.08;86.11;100547.78;5066090;28;20206;-71
2022/05/11 04:32:47;;;;;;;9.23;6.40;;;;;;;22.25;81.23;100552.66;5073587;28;20207;-71
2022/05/11 04:35:14;;;;;;;11.40;7.32;;;;;;;22.75;78.55;100550.50;5073258;28;20224;-71
2022/05/11 04:37:41;;;;;;;7.97;6.80;;;;;;;23.56;72.33;100556.06;5073077;28;20199;-71
2022/05/11 04:40:11;;;;;;;12.10;6.90;;;;;;;23.92;67.94;100543.47;5054328;28;20218;-70
2022/05/11 04:42:38;;;;;;;9.38;7.00;;;;;;;24.25;64.71;100535.34;5072912;28;20646;-71
2022/05/11 04:45:07;;;;;;;19.63;7.72;;;;;;;24.63;64.61;100545.50;5072980;28;20198;-71
2022/05/11 04:47:33;;;;;;;11.75;8.25;;;;;;;24.49;63.01;100567.19;5036870;28;20199;-71
2022/05/11 04:50:00;;;;;;;15.82;8.75;;;;;;;23.83;64.45;100548.19;5071971;28;20211;-71
2022/05/11 04:52:27;;;;;;;12.52;8.45;;;;;;;23.28;67.76;100559.56;5071871;28;20191;-72
2022/05/11 04:54:54;;;;;;;17.08;9.60;;;;;;;22.58;70.18;100506.84;5063265;28;20207;-71
2022/05/11 04:57:22;;;;;;;12.20;8.80;;;;;;;22.42;73.90;100561.03;5052528;28;20625;-71
2022/05/11 04:59:50;;;;;;;12.93;10.10;;;;;;;22.02;77.30;100558.50;5069384;28;20231;-71
2022/05/11 05:02:21;;;;;;;13.25;8.88;;;;;;;21.44;81.70;100548.38;5073188;28;20199;-71
2022/05/11 05:04:49;;;;;;;16.88;9.68;;;;;;;20.80;87.42;100527.69;5072900;28;20285;-71
2022/05/11 05:07:17;;;;;;;23.67;10.38;;;;;;;20.25;94.78;100536.59;5037497;28;20191;-71
2022/05/11 05:09:44;;;;;;;31.45;11.18;;;;;;;20.18;97.62;100557.81;5072850;28;20199;-71
2022/05/11 05:12:13;;;;;;;22.70;11.68;;;;;;;20.06;100.00;100564.13;5071260;28;20698;-72
2022/05/11 05:14:42;;;;;;;19.42;11.63;;;;;;;19.48;100.00;100565.88;5063589;28;20693;-72
2022/05/11 05:17:11;;;;;;;17.27;11.48;;;;;;;18.71;100.00;100571.16;5071822;28;20207;-71
2022/05/11 05:19:40;;;;;;;23.67;11.77;;;;;;;18.92;100.00;100562.16;5071969;28;20223;-71
2022/05/11 05:22:07;;;;;;;23.48;12.40;;;;;;;18.96;100.00;100571.75;5072333;28;20195;-72
2022/05/11 05:24:34;;;;;;;18.08;12.02;;;;;;;18.69;100.00;100569.44;5063604;28;20203;-70
2022/05/11 05:27:02;;;;;;;31.83;12.05;;;;;;;18.88;100.00;100543.81;5072133;28;20207;-70
2022/05/11 05:32:19;;;;;;;18.00;10.80;;;;;;;19.19;100.00;100568.88;5049950;28;20214;-70
2022/05/11 05:41:50;;;;;;;15.20;11.82;;;;;;;18.60;100.00;100572.13;5024760;28;20234;-69
2022/05/11 05:44:16;;;;;;;24.73;11.73;;;;;;;18.42;100.00;100574.91;5049864;28;20203;-69
2022/05/11 05:46:44;;;;;;;20.17;11.40;;;;;;;18.59;100.00;100575.63;5049567;28;20206;-68
2022/05/11 05:49:10;;;;;;;20.33;10.93;;;;;;;18.46;100.00;100585.38;5000601;28;20195;-68
2022/05/11 05:51:39;;;;;;;19.65;11.30;;;;;;;18.27;100.00;100563.66;5049512;28;20207;-69
2022/05/11 05:54:06;;;;;;;32.35;16.90;;;;;;;18.32;100.00;100582.88;5049736;28;20668;-69
2022/05/11 05:56:33;;;;;;;26.60;16.33;;;;;;;18.30;100.00;100592.50;5016308;28;20593;-69
2022/05/11 05:59:09;;;;;;;21.60;13.20;;;;;;;18.14;100.00;100593.50;5049577;28;20227;-69
2022/05/11 06:01:36;;;;;;;21.63;12.38;;;;;;;17.78;100.00;100572.78;5011831;28;20203;-68
2022/05/11 06:04:05;;;;;;;16.98;12.43;;;;;;;17.65;100.00;100592.09;5029055;28;20343;-68
2022/05/11 06:06:32;;;;;;;14.93;10.82;;;;;;;17.95;100.00;100591.00;4981196;28;20672;-68
2022/05/11 06:08:58;;;;;;;18.60;11.10;;;;;;;18.38;100.00;100589.81;5040904;28;20648;-68
2022/05/11 06:11:25;;;;;;;20.95;10.45;;;;;;;18.40;100.00;100580.19;5032748;28;20584;-68
2022/05/11 06:13:52;;;;;;;26.15;13.90;;;;;;;18.70;100.00;100597.41;5016749;28;20203;-68
2022/05/11 06:23:28;;;;;;;19.05;9.68;;;;;;;19.18;100.00;100615.31;5051542;28;20225;-67
2022/05/11 06:25:55;;;;;;;26.10;11.52;;;;;;;19.42;100.00;100614.16;5032759;28;20203;-67
2022/05/11 06:28:22;;;;;;;27.38;12.02;;;;;;;19.71;100.00;100601.50;5051508;28;20207;-67
2022/05/11 06:30:48;;;;;;;21.42;10.93;;;;;;;19.92;100.00;100613.47;5064311;28;20202;-69
2022/05/11 06:33:15;;;;;;;22.60;10.68;;;;;;;19.67;100.00;100615.59;5070475;28;20199;-69
2022/05/11 06:35:42;;;;;;;22.73;10.13;;;;;;;19.54;100.00;100610.53;5071370;28;20199;-70
2022/05/11 06:38:10;;;;;;;29.38;11.50;;;;;;;19.88;100.00;100626.72;5035440;28;20217;-70
2022/05/11 06:40:38;;;;;;;20.23;11.32;;;;;;;19.76;100.00;100625.13;5070846;28;20229;-69
2022/05/11 06:43:06;;;;;;;18.40;11.35;;;;;;;19.80;100.00;100627.69;5071208;28;20230;-69
2022/05/11 06:45:33;;;;;;;18.23;10.85;;;;;;;19.42;100.00;100600.16;5071049;28;20681;-69
2022/05/11 06:48:00;;;;;;;15.20;10.30;;;;;;;19.56;100.00;100621.88;5071056;28;20203;-69
2022/05/11 06:50:27;;;;;;;16.92;10.18;;;;;;;19.70;100.00;100609.41;5068993;28;20218;-69
2022/05/11 06:52:56;;;;;;;18.40;10.02;;;;;;;19.53;100.00;100622.81;5070323;28;20744;-69
2022/05/11 07:00:53;;;;;;;12.38;10.32;;;;;;;20.37;100.00;100637.44;5034975;28;20225;-70
2022/05/11 07:03:20;;;;;;;12.73;9.48;;;;;;;20.83;100.00;100624.34;5050533;28;20231;-71
2022/05/11 07:05:47;;;;;;;16.77;10.32;;;;;;;21.02;100.00;100642.41;5050414;28;20203;-71
2022/05/11 07:08:14;;;;;;;17.23;9.82;;;;;;;21.60;100.00;100622.81;5050618;28;20195;-71
2022/05/11 07:12:17;;;;;;;13.60;9.88;;;;;;;22.04;98.94;100617.47;5031896;28;20207;-71
2022/05/11 07:13:31;;;;;;;10.93;8.63;;;;;;;22.28;95.48;100633.63;5050664;28;20210;-72
2022/05/11 07:15:58;;;;;;;16.42;8.77;;;;;;;21.94;97.24;100623.81;5050164;28;20214;-71
2022/05/11 07:18:26;;;;;;;12.95;9.45;;;;;;;21.11;100.00;100647.56;5048241;28;20694;-72
2022/05/11 07:20:53;;;;;;;17.10;9.10;;;;;;;20.60;100.00;100585.19;5050528;28;20273;-71
2022/05/11 07:23:20;;;;;;;12.57;9.07;;;;;;;20.77;100.00;100647.25;5047389;28;20205;-71
2022/05/11 07:25:47;;;;;;;12.90;9.07;;;;;;;20.71;100.00;100626.28;5048721;28;20231;-70
2022/05/11 07:28:16;;;;;;;22.17;10.10;;;;;;;20.54;100.00;100573.03;5064607;28;20209;-71
2022/05/11 07:30:47;;;;;;;11.90;8.88;;;;;;;20.66;100.00;100619.34;5053391;28;20215;-71
2022/05/11 07:33:14;;;;;;;11.77;8.82;;;;;;;20.49;100.00;100619.63;5052490;28;20198;-71
2022/05/11 07:35:41;;;;;;;13.60;9.20;;;;;;;20.50;100.00;100615.25;5068794;28;20257;-71
2022/05/11 07:38:09;;;;;;;13.45;9.00;;;;;;;20.88;100.00;100638.28;5069330;28;20543;-71
2022/05/11 07:40:36;;;;;;;16.25;9.27;;;;;;;20.69;100.00;100640.41;5070000;28;20226;-71
2022/05/11 07:43:03;;;;;;;12.35;8.27;;;;;;;20.85;100.00;100638.34;5070462;28;20241;-71
2022/05/11 07:45:30;;;;;;;11.50;8.52;;;;;;;20.54;100.00;100617.81;5070275;28;20217;-71
2022/05/11 07:47:59;;;;;;;9.95;7.18;;;;;;;20.72;100.00;100611.34;5070235;28;20198;-70
2022/05/11 07:50:26;;;;;;;10.10;7.35;;;;;;;20.96;100.00;100613.53;5071252;28;20218;-69
2022/05/11 07:52:54;;;;;;;6.90;6.25;;;;;;;20.97;100.00;100628.44;5074125;28;20206;-70
2022/05/11 07:55:24;;;;;;;6.45;5.82;;;;;;;20.94;100.00;100632.91;5074089;28;20205;-70
2022/05/11 08:00:37;;;;;;;9.00;5.22;;;;;;;20.53;100.00;100579.19;5043762;28;20225;-71
2022/05/11 08:03:05;;;;;;;6.88;4.72;;;;;;;21.32;97.55;100619.00;5073975;28;20191;-70
2022/05/11 08:05:33;;;;;;;7.53;5.75;;;;;;;21.31;96.55;100598.78;5073665;28;20659;-69
2022/05/11 08:08:04;;;;;;;8.00;5.53;;;;;;;21.81;92.87;100618.81;5073739;28;20237;-69
2022/05/11 08:10:35;;;;;;;8.18;5.28;;;;;;;21.87;91.42;100630.13;5073635;28;20207;-69
2022/05/11 08:13:05;;;;;;;7.65;5.50;;;;;;;21.98;90.45;100609.66;5054771;28;20191;-69
2022/05/11 08:15:33;;;;;;;6.93;5.18;;;;;;;22.16;88.16;100616.28;5052989;28;20203;-69
2022/05/11 08:18:01;;;;;;;6.22;5.03;;;;;;;22.21;88.59;100615.28;5053519;28;20207;-69
2022/05/11 08:20:33;;;;;;;5.43;4.75;;;;;;;22.21;86.73;100632.91;5053192;28;20714;-69
2022/05/11 08:23:02;;;;;;;7.63;5.13;;;;;;;22.26;85.85;100638.09;5053726;28;20204;-69
2022/05/11 08:25:31;;;;;;;6.55;4.97;;;;;;;22.10;84.57;100634.91;5072766;28;20236;-72
2022/05/11 08:27:59;;;;;;;4.88;4.20;;;;;;;22.05;85.15;100635.03;5072534;28;20195;-69
2022/05/11 08:33:22;;;;;;;6.25;3.85;;;;;;;22.26;84.94;100606.38;5052909;28;20206;-70
2022/05/11 08:35:52;;;;;;;5.00;4.50;;;;;;;22.81;80.15;100627.88;5053394;28;20273;-69
2022/05/11 08:38:21;;;;;;;4.10;3.70;;;;;;;22.56;77.75;100642.59;5053110;28;20199;-71
2022/05/11 08:40:56;;;;;;;4.20;3.90;;;;;;;23.08;75.83;100645.66;5053309;28;20258;-69
2022/05/11 08:43:25;;;;;;;6.13;3.88;;;;;;;23.05;71.24;100640.44;5052981;28;20319;-69
2022/05/11 08:46:04;;;;;;;5.18;4.68;;;;;;;23.18;68.87;100626.00;5052955;28;20207;-69
2022/05/11 08:48:40;;;;;;;4.82;4.35;;;;;;;22.87;71.42;100630.34;5051427;28;20207;-69
2022/05/11 08:51:10;;;;;;;9.50;4.80;;;;;;;22.95;70.64;100641.59;5052775;28;20207;-71
2022/05/11 08:53:39;;;;;;;5.88;4.57;;;;;;;22.74;70.29;100642.19;5052158;28;20235;-70
2022/05/11 08:56:13;;;;;;;7.57;5.00;;;;;;;22.53;73.12;100638.28;5055952;28;20207;-69
2022/05/11 08:58:48;;;;;;;6.15;5.03;;;;;;;22.46;74.41;100644.63;5037639;28;20233;-70
2022/05/11 09:01:20;;;;;;;5.88;5.28;;;;;;;22.52;76.02;100644.47;5072173;28;20640;-70
2022/05/11 09:03:52;;;;;;;9.00;5.53;;;;;;;22.40;75.45;100646.53;5072460;28;20202;-70
2022/05/11 09:06:24;;;;;;;6.82;4.68;;;;;;;22.64;71.76;100635.34;5072367;28;20205;-70
2022/05/11 09:08:52;;;;;;;6.10;4.50;;;;;;;22.45;70.66;100612.94;5072819;28;20229;-69
2022/05/11 09:11:26;;;;;;;8.88;4.80;;;;;;;22.67;70.28;100632.66;5072972;28;20252;-69
2022/05/11 09:13:52;;;;;;;7.85;4.40;;;;;;;22.87;70.97;100629.47;5072641;28;20206;-70
2022/05/11 09:16:22;;;;;;;7.22;4.88;;;;;;;22.73;70.88;100609.56;5037573;28;20682;-69
2022/05/11 09:18:49;;;;;;;7.78;5.00;;;;;;;22.78;73.17;100633.25;5072656;28;20226;-69
2022/05/11 09:21:29;;;;;;;7.40;4.88;;;;;;;22.90;73.64;100616.22;5072192;28;20280;-69
2022/05/11 09:24:09;;;;;;;6.43;5.22;;;;;;;22.98;73.70;100630.06;5072137;28;20195;-69
2022/05/11 09:26:39;;;;;;;6.28;4.50;;;;;;;23.19;74.02;100629.47;5071884;28;20670;-69
2022/05/11 09:29:20;;;;;;;7.40;4.72;;;;;;;23.41;69.12;100630.66;5071761;28;20206;-69
2022/05/11 09:31:48;;;;;;;5.68;4.55;;;;;;;23.50;68.37;100613.66;5071908;28;20207;-69
2022/05/11 09:34:26;;;;;;;7.55;4.22;;;;;;;23.52;69.47;100603.88;5071916;28;20203;-69
2022/05/11 09:36:57;;;;;;;5.88;4.32;;;;;;;23.67;66.99;100612.22;5071634;28;20206;-69
2022/05/11 09:39:27;;;;;;;6.20;3.83;;;;;;;23.36;64.89;100597.28;5071952;28;20191;-70
2022/05/11 09:41:56;;;;;;;3.80;3.42;;;;;;;23.15;65.37;100602.25;5052765;28;20999;-69
2022/05/11 09:44:26;;;;;;;6.28;4.10;;;;;;;23.31;66.98;100578.00;5071580;28;20199;-69
2022/05/11 09:46:53;;;;;;;7.60;4.53;;;;;;;23.51;69.03;100599.47;5071688;28;20199;-69
2022/05/11 09:49:28;;;;;;;6.00;4.70;;;;;;;23.20;70.20;100573.88;5071569;28;20576;-71
2022/05/11 09:51:57;;;;;;;4.70;4.30;;;;;;;23.69;69.72;100598.94;5071353;28;20281;-70
2022/05/11 09:54:32;;;;;;;4.97;4.13;;;;;;;23.67;66.01;100595.47;5071124;28;20190;-70
2022/05/11 09:57:02;;;;;;;6.72;3.63;;;;;;;23.83;63.05;100599.38;5071217;28;20253;-70
2022/05/11 09:59:34;;;;;;;5.55;3.92;;;;;;;23.49;64.81;100588.94;5071261;28;20203;-70
2022/05/11 10:02:14;;;;;;;9.27;4.72;;;;;;;23.46;67.14;100588.16;5071179;28;20198;-70
2022/05/11 10:04:45;;;;;;;4.32;3.95;;;;;;;23.49;67.12;100590.72;5036041;28;20287;-70
2022/05/11 10:07:19;;;;;;;5.20;4.05;;;;;;;23.57;68.51;100588.72;5071136;28;20214;-70
2022/05/11 10:09:51;;;;;;;3.85;3.42;;;;;;;23.48;66.02;100592.50;5071138;28;20666;-70
2022/05/11 10:12:23;;;;;;;6.07;3.63;;;;;;;23.79;67.93;100595.09;5071097;28;20203;-70
2022/05/11 10:23:19;;;;;;;3.38;3.10;;;;;;;23.88;61.62;100583.34;5071058;28;20198;-70
2022/05/11 10:25:49;;;;;;;12.20;3.63;;;;;;;23.77;64.08;100578.38;5071066;28;20194;-70
2022/05/11 10:28:27;;;;;;;11.82;3.95;;;;;;;24.10;62.42;100574.66;5070979;28;20198;-69
2022/05/11 10:30:59;;;;;;;9.35;4.10;;;;;;;24.00;62.60;100573.25;5070541;28;20195;-70
2022/05/11 10:33:48;;;;;;;7.50;3.95;;;;;;;23.97;61.01;100568.00;5070702;28;20206;-69
2022/05/11 10:36:22;;;;;;;7.32;3.55;;;;;;;24.16;59.62;100561.25;5070862;28;20667;-70
2022/05/11 10:39:01;;;;;;;11.52;4.13;;;;;;;24.13;60.50;100564.00;5070668;28;20280;-69
2022/05/11 10:41:32;;;;;;;8.00;3.95;;;;;;;24.25;60.82;100551.25;5070172;28;20231;-70
2022/05/11 10:44:07;;;;;;;6.55;3.40;;;;;;;24.18;59.36;100546.16;5070359;28;20201;-70
2022/05/11 10:46:37;;;;;;;5.70;3.50;;;;;;;24.43;58.47;100562.13;5062605;28;20286;-70
2022/05/11 10:49:26;;;;;;;4.40;3.63;;;;;;;24.61;56.97;100550.84;5050353;28;20234;-70
2022/05/11 10:52:06;;;;;;;5.68;3.05;;;;;;;24.57;56.02;100558.97;5050300;28;20210;-70
2022/05/11 10:54:44;;;;;;;3.20;3.00;;;;;;;24.10;57.37;100545.53;5050212;28;20604;-70
2022/05/11 10:57:20;;;;;;;3.92;3.63;;;;;;;24.41;57.26;100541.84;5050420;28;20613;-69
2022/05/11 11:00:00;;;;;;;4.72;3.00;;;;;;;24.68;57.16;100540.91;5050302;28;20202;-69
2022/05/11 11:03:08;;;;;;;11.88;4.68;;;;;;;24.92;55.11;100532.09;5050637;28;20202;-69
2022/05/11 11:07:11;;;;;;;4.22;3.13;;;;;;;24.93;54.54;100538.28;5050974;28;20713;-70
2022/05/11 11:08:43;;;;;;;7.57;3.20;;;;;;;25.12;54.00;100534.00;5050310;28;20286;-70
2022/05/11 11:11:18;;;;;;;6.75;3.50;;;;;;;24.89;54.62;100537.53;5050135;28;20203;-70
2022/05/11 11:13:52;;;;;;;6.35;3.40;;;;;;;24.57;54.38;100532.47;5050405;28;20195;-69
2022/05/11 11:16:19;;;;;;;4.97;3.70;;;;;;;24.58;53.17;100512.97;5050527;28;20200;-68
2022/05/11 11:18:49;;;;;;;3.65;3.33;;;;;;;24.49;53.13;100529.22;5050337;28;20196;-68
2022/05/11 11:21:18;;;;;;;3.13;2.70;;;;;;;24.67;53.40;100528.56;5050121;28;20235;-68
2022/05/11 11:23:47;;;;;;;5.93;2.90;;;;;;;24.85;51.98;100529.72;5050273;28;20195;-68
2022/05/11 11:26:49;;;;;;;3.55;3.22;;;;;;;24.87;52.26;100523.44;5052914;28;20656;-68
2022/05/11 11:29:22;;;;;;;4.50;2.70;;;;;;;25.16;51.80;100487.84;5054045;28;20202;-68
2022/05/11 11:32:19;;;;;;;4.60;3.20;;;;;;;25.64;50.49;100527.59;5054379;28;20202;-68
2022/05/11 11:34:49;;;;;;;5.18;3.13;;;;;;;25.45;50.49;100522.09;5054152;28;20231;-68
2022/05/11 11:37:42;;;;;;;3.20;2.90;;;;;;;25.23;51.71;100509.69;5053860;28;20290;-68
2022/05/11 11:40:28;;;;;;;3.75;3.30;;;;;;;25.44;51.30;100490.28;5054029;28;20285;-68
2022/05/11 11:42:56;;;;;;;4.85;3.35;;;;;;;25.70;49.82;100522.03;5053859;28;20247;-69
2022/05/11 11:45:59;;;;;;;3.53;3.03;;;;;;;25.22;49.69;100522.09;5053786;28;20195;-69
2022/05/11 11:48:26;;;;;;;5.03;3.55;;;;;;;25.33;51.14;100514.59;5053710;28;20235;-68
2022/05/11 11:50:58;;;;;;;3.47;2.80;;;;;;;25.36;51.25;100497.72;5053817;28;20199;-69
2022/05/11 11:53:31;;;;;;;3.92;3.60;;;;;;;25.53;50.53;100516.53;5053723;28;20222;-69
2022/05/11 11:56:42;;;;;;;4.15;3.03;;;;;;;25.37;50.25;100500.28;5053737;28;20202;-69
2022/05/11 11:59:12;;;;;;;3.90;3.10;;;;;;;25.19;50.06;100485.06;5017918;28;20594;-70
2022/05/11 12:01:42;;;;;;;5.20;3.13;;;;;;;25.45;49.67;100500.84;5053393;28;20219;-70
2022/05/11 12:04:19;;;;;;;3.03;2.83;;;;;;;25.66;48.86;100480.56;5053542;28;20196;-70
2022/05/11 12:15:20;;;;;;;9.85;3.72;;;;;;;25.99;51.29;100486.28;5053360;28;20210;-70
2022/05/11 12:17:47;;;;;;;3.25;3.00;;;;;;;25.71;49.67;100469.78;5053248;28;20698;-70
2022/05/11 12:20:18;;;;;;;3.25;3.05;;;;;;;25.64;48.96;100483.31;5053437;28;20211;-71
2022/05/11 12:22:48;;;;;;;7.50;3.35;;;;;;;25.43;49.62;100464.69;5053469;28;20203;-70
2022/05/11 12:25:26;;;;;;;6.00;3.05;;;;;;;25.60;50.42;100475.53;5053111;28;20191;-71